sensor_id;sensor_type;location;lat;lon;timestamp;temperature;humidity
47350;DHT22;33088;51.982;5.872;2023-04-24T00:01:48;9.40;99.90
47350;DHT22;33088;51.982;5.872;2023-04-24T00:04:14;9.40;99.90
47350;DHT22;33088;51.982;5.872;2023-04-24T00:06:44;9.40;99.90
47350;DHT22;33088;51.982;5.872;2023-04-24T00:09:14;9.50;99.90
47350;DHT22;33088;51.982;5.872;2023-04-24T00:11:41;9.40;99.90
47350;DHT22;33088;51.982;5.872;2023-04-24T00:14:07;9.50;99.90
47350;DHT22;33088;51.982;5.872;2023-04-24T00:16:32;9.40;99.90
47350;DHT22;33088;51.982;5.872;2023-04-24T00:18:58;9.50;99.90
47350;DHT22;33088;51.982;5.872;2023-04-24T00:21:26;9.50;99.90
47350;DHT22;33088;51.982;5.872;2023-04-24T00:23:52;9.40;99.90
47350;DHT22;33088;51.982;5.872;2023-04-24T00:26:20;9.40;99.90
47350;DHT22;33088;51.982;5.872;2023-04-24T00:28:46;9.40;99.90
47350;DHT22;33088;51.982;5.872;2023-04-24T00:31:12;9.40;99.90
47350;DHT22;33088;51.982;5.872;2023-04-24T00:33:38;9.40;99.90
47350;DHT22;33088;51.982;5.872;2023-04-24T00:36:04;9.30;99.90
47350;DHT22;33088;51.982;5.872;2023-04-24T00:38:30;9.40;99.90
47350;DHT22;33088;51.982;5.872;2023-04-24T00:40:55;9.30;99.90
47350;DHT22;33088;51.982;5.872;2023-04-24T00:43:21;9.40;99.90
47350;DHT22;33088;51.982;5.872;2023-04-24T00:45:47;9.30;99.90
47350;DHT22;33088;51.982;5.872;2023-04-24T00:48:13;9.30;99.90
47350;DHT22;33088;51.982;5.872;2023-04-24T00:50:39;9.30;99.90
47350;DHT22;33088;51.982;5.872;2023-04-24T00:53:05;9.30;99.90
47350;DHT22;33088;51.982;5.872;2023-04-24T00:55:32;9.30;99.90
47350;DHT22;33088;51.982;5.872;2023-04-24T00:57:58;9.30;99.90
47350;DHT22;33088;51.982;5.872;2023-04-24T01:00:24;9.30;99.90
47350;DHT22;33088;51.982;5.872;2023-04-24T01:02:50;9.30;99.90
47350;DHT22;33088;51.982;5.872;2023-04-24T01:05:17;9.30;99.90
47350;DHT22;33088;51.982;5.872;2023-04-24T01:07:44;9.30;99.90
47350;DHT22;33088;51.982;5.872;2023-04-24T01:10:11;9.30;99.90
47350;DHT22;33088;51.982;5.872;2023-04-24T01:12:39;9.30;99.90
47350;DHT22;33088;51.982;5.872;2023-04-24T01:15:05;9.50;99.90
47350;DHT22;33088;51.982;5.872;2023-04-24T01:17:34;9.30;99.90
47350;DHT22;33088;51.982;5.872;2023-04-24T01:20:01;9.30;99.90
47350;DHT22;33088;51.982;5.872;2023-04-24T01:22:32;9.30;99.90
47350;DHT22;33088;51.982;5.872;2023-04-24T01:24:57;9.30;99.90
47350;DHT22;33088;51.982;5.872;2023-04-24T01:27:24;9.50;99.90
47350;DHT22;33088;51.982;5.872;2023-04-24T01:29:49;9.30;99.90
47350;DHT22;33088;51.982;5.872;2023-04-24T01:32:17;9.30;99.90
47350;DHT22;33088;51.982;5.872;2023-04-24T01:34:44;9.30;99.90
47350;DHT22;33088;51.982;5.872;2023-04-24T01:37:10;9.30;99.90
47350;DHT22;33088;51.982;5.872;2023-04-24T01:39:36;9.20;99.90
47350;DHT22;33088;51.982;5.872;2023-04-24T01:42:02;9.20;99.90
47350;DHT22;33088;51.982;5.872;2023-04-24T01:44:28;9.20;99.90
47350;DHT22;33088;51.982;5.872;2023-04-24T01:46:54;9.20;99.90
47350;DHT22;33088;51.982;5.872;2023-04-24T01:49:20;9.10;99.90
47350;DHT22;33088;51.982;5.872;2023-04-24T01:51:46;9.10;99.90
47350;DHT22;33088;51.982;5.872;2023-04-24T01:54:12;9.10;99.90
47350;DHT22;33088;51.982;5.872;2023-04-24T01:56:45;9.10;99.90
47350;DHT22;33088;51.982;5.872;2023-04-24T01:59:12;9.10;99.90
47350;DHT22;33088;51.982;5.872;2023-04-24T02:01:38;9.10;99.90
47350;DHT22;33088;51.982;5.872;2023-04-24T02:04:06;9.10;99.90
47350;DHT22;33088;51.982;5.872;2023-04-24T02:06:33;9.30;99.90
47350;DHT22;33088;51.982;5.872;2023-04-24T02:09:00;9.10;99.90
47350;DHT22;33088;51.982;5.872;2023-04-24T02:11:26;9.20;99.90
47350;DHT22;33088;51.982;5.872;2023-04-24T02:13:52;9.10;99.90
47350;DHT22;33088;51.982;5.872;2023-04-24T02:16:18;9.10;99.90
47350;DHT22;33088;51.982;5.872;2023-04-24T02:18:45;9.10;99.90
47350;DHT22;33088;51.982;5.872;2023-04-24T02:21:11;9.10;99.90
47350;DHT22;33088;51.982;5.872;2023-04-24T02:23:36;9.10;99.90
47350;DHT22;33088;51.982;5.872;2023-04-24T02:26:02;9.10;99.90
47350;DHT22;33088;51.982;5.872;2023-04-24T02:28:28;9.20;99.90
47350;DHT22;33088;51.982;5.872;2023-04-24T02:30:53;9.10;99.90
47350;DHT22;33088;51.982;5.872;2023-04-24T02:33:21;9.10;99.90
47350;DHT22;33088;51.982;5.872;2023-04-24T02:35:47;9.10;99.90
47350;DHT22;33088;51.982;5.872;2023-04-24T02:38:13;9.10;99.90
47350;DHT22;33088;51.982;5.872;2023-04-24T02:40:38;9.10;99.90
47350;DHT22;33088;51.982;5.872;2023-04-24T02:43:04;9.10;99.90
47350;DHT22;33088;51.982;5.872;2023-04-24T02:45:30;9.10;99.90
47350;DHT22;33088;51.982;5.872;2023-04-24T02:47:55;9.20;99.90
47350;DHT22;33088;51.982;5.872;2023-04-24T02:50:22;9.10;99.90
47350;DHT22;33088;51.982;5.872;2023-04-24T02:52:50;9.00;99.90
47350;DHT22;33088;51.982;5.872;2023-04-24T02:55:15;9.10;99.90
47350;DHT22;33088;51.982;5.872;2023-04-24T02:57:41;9.10;99.90
47350;DHT22;33088;51.982;5.872;2023-04-24T03:00:07;9.20;99.90
47350;DHT22;33088;51.982;5.872;2023-04-24T03:02:34;9.00;99.90
47350;DHT22;33088;51.982;5.872;2023-04-24T03:05:00;9.10;99.90
47350;DHT22;33088;51.982;5.872;2023-04-24T03:07:25;9.00;99.90
47350;DHT22;33088;51.982;5.872;2023-04-24T03:09:51;9.00;99.90
47350;DHT22;33088;51.982;5.872;2023-04-24T03:12:17;9.00;99.90
47350;DHT22;33088;51.982;5.872;2023-04-24T03:14:43;9.10;99.90
47350;DHT22;33088;51.982;5.872;2023-04-24T03:17:09;9.00;99.90
47350;DHT22;33088;51.982;5.872;2023-04-24T03:19:35;9.00;99.90
47350;DHT22;33088;51.982;5.872;2023-04-24T03:22:08;9.10;99.90
47350;DHT22;33088;51.982;5.872;2023-04-24T03:24:36;9.10;99.90
47350;DHT22;33088;51.982;5.872;2023-04-24T03:27:01;9.10;99.90
47350;DHT22;33088;51.982;5.872;2023-04-24T03:29:43;9.00;99.90
47350;DHT22;33088;51.982;5.872;2023-04-24T03:32:10;9.00;99.90
47350;DHT22;33088;51.982;5.872;2023-04-24T03:34:37;9.00;99.90
47350;DHT22;33088;51.982;5.872;2023-04-24T03:37:03;9.00;99.90
47350;DHT22;33088;51.982;5.872;2023-04-24T03:39:30;9.00;99.90
47350;DHT22;33088;51.982;5.872;2023-04-24T03:41:56;9.00;99.90
47350;DHT22;33088;51.982;5.872;2023-04-24T03:44:28;8.90;99.90
47350;DHT22;33088;51.982;5.872;2023-04-24T03:46:54;8.90;99.90
47350;DHT22;33088;51.982;5.872;2023-04-24T03:49:22;9.00;99.90
47350;DHT22;33088;51.982;5.872;2023-04-24T03:51:48;8.90;99.90
47350;DHT22;33088;51.982;5.872;2023-04-24T03:54:19;8.90;99.90
47350;DHT22;33088;51.982;5.872;2023-04-24T03:56:45;8.90;99.90
47350;DHT22;33088;51.982;5.872;2023-04-24T03:59:11;8.90;99.90
47350;DHT22;33088;51.982;5.872;2023-04-24T04:01:38;9.10;99.90
47350;DHT22;33088;51.982;5.872;2023-04-24T04:04:10;8.80;99.90
47350;DHT22;33088;51.982;5.872;2023-04-24T04:06:37;8.90;99.90
47350;DHT22;33088;51.982;5.872;2023-04-24T04:09:03;9.00;99.90
47350;DHT22;33088;51.982;5.872;2023-04-24T04:11:29;8.80;99.90
47350;DHT22;33088;51.982;5.872;2023-04-24T04:13:58;9.00;99.90
47350;DHT22;33088;51.982;5.872;2023-04-24T04:16:24;8.80;99.90
47350;DHT22;33088;51.982;5.872;2023-04-24T04:18:55;8.80;99.90
47350;DHT22;33088;51.982;5.872;2023-04-24T04:21:22;8.80;99.90
47350;DHT22;33088;51.982;5.872;2023-04-24T04:23:53;8.80;99.90
47350;DHT22;33088;51.982;5.872;2023-04-24T04:26:25;8.70;99.90
47350;DHT22;33088;51.982;5.872;2023-04-24T04:29:08;8.80;99.90
47350;DHT22;33088;51.982;5.872;2023-04-24T04:31:38;8.80;99.90
47350;DHT22;33088;51.982;5.872;2023-04-24T04:34:09;8.70;99.90
47350;DHT22;33088;51.982;5.872;2023-04-24T04:36:35;8.70;99.90
47350;DHT22;33088;51.982;5.872;2023-04-24T04:39:10;8.70;99.90
47350;DHT22;33088;51.982;5.872;2023-04-24T04:41:46;8.70;99.90
47350;DHT22;33088;51.982;5.872;2023-04-24T04:44:16;8.70;99.90
47350;DHT22;33088;51.982;5.872;2023-04-24T04:46:42;8.90;99.90
47350;DHT22;33088;51.982;5.872;2023-04-24T04:49:16;8.70;99.90
47350;DHT22;33088;51.982;5.872;2023-04-24T04:51:42;8.70;99.90
47350;DHT22;33088;51.982;5.872;2023-04-24T04:54:07;8.70;99.90
47350;DHT22;33088;51.982;5.872;2023-04-24T04:56:34;8.70;99.90
47350;DHT22;33088;51.982;5.872;2023-04-24T04:59:04;8.70;99.90
47350;DHT22;33088;51.982;5.872;2023-04-24T05:01:31;8.70;99.90
47350;DHT22;33088;51.982;5.872;2023-04-24T05:03:57;8.70;99.90
47350;DHT22;33088;51.982;5.872;2023-04-24T05:06:23;8.60;99.90
47350;DHT22;33088;51.982;5.872;2023-04-24T05:08:49;8.70;99.90
47350;DHT22;33088;51.982;5.872;2023-04-24T05:11:26;8.60;99.90
47350;DHT22;33088;51.982;5.872;2023-04-24T05:13:54;8.60;99.90
47350;DHT22;33088;51.982;5.872;2023-04-24T05:16:27;8.60;99.90
47350;DHT22;33088;51.982;5.872;2023-04-24T05:18:54;8.60;99.90
47350;DHT22;33088;51.982;5.872;2023-04-24T05:21:26;8.60;99.90
47350;DHT22;33088;51.982;5.872;2023-04-24T05:23:52;8.50;99.90
47350;DHT22;33088;51.982;5.872;2023-04-24T05:26:29;8.60;99.90
47350;DHT22;33088;51.982;5.872;2023-04-24T05:28:57;8.60;99.90
47350;DHT22;33088;51.982;5.872;2023-04-24T05:31:22;8.60;99.90
47350;DHT22;33088;51.982;5.872;2023-04-24T05:33:48;8.60;99.90
47350;DHT22;33088;51.982;5.872;2023-04-24T05:36:14;8.60;99.90
47350;DHT22;33088;51.982;5.872;2023-04-24T05:38:40;8.60;99.90
47350;DHT22;33088;51.982;5.872;2023-04-24T05:41:06;8.60;99.90
47350;DHT22;33088;51.982;5.872;2023-04-24T05:43:32;8.60;99.90
47350;DHT22;33088;51.982;5.872;2023-04-24T05:45:57;8.60;99.90
47350;DHT22;33088;51.982;5.872;2023-04-24T05:48:23;8.80;99.90
47350;DHT22;33088;51.982;5.872;2023-04-24T05:50:49;8.70;99.90
47350;DHT22;33088;51.982;5.872;2023-04-24T05:53:14;8.70;99.90
47350;DHT22;33088;51.982;5.872;2023-04-24T05:55:41;8.70;99.90
47350;DHT22;33088;51.982;5.872;2023-04-24T05:58:14;8.70;99.90
47350;DHT22;33088;51.982;5.872;2023-04-24T06:00:40;8.70;99.90
47350;DHT22;33088;51.982;5.872;2023-04-24T06:03:10;8.80;99.90
47350;DHT22;33088;51.982;5.872;2023-04-24T06:05:36;9.20;99.90
47350;DHT22;33088;51.982;5.872;2023-04-24T06:08:02;8.90;99.90
47350;DHT22;33088;51.982;5.872;2023-04-24T06:10:32;8.90;99.90
47350;DHT22;33088;51.982;5.872;2023-04-24T06:12:57;8.90;99.90
47350;DHT22;33088;51.982;5.872;2023-04-24T06:15:28;8.90;99.90
47350;DHT22;33088;51.982;5.872;2023-04-24T06:18:02;8.90;99.90
47350;DHT22;33088;51.982;5.872;2023-04-24T06:20:28;8.90;99.90
47350;DHT22;33088;51.982;5.872;2023-04-24T06:22:54;8.90;99.90
47350;DHT22;33088;51.982;5.872;2023-04-24T06:25:20;8.90;99.90
47350;DHT22;33088;51.982;5.872;2023-04-24T06:27:46;8.90;99.90
47350;DHT22;33088;51.982;5.872;2023-04-24T06:30:12;9.00;99.90
47350;DHT22;33088;51.982;5.872;2023-04-24T06:32:38;9.00;99.90
47350;DHT22;33088;51.982;5.872;2023-04-24T06:35:04;9.10;99.90
47350;DHT22;33088;51.982;5.872;2023-04-24T06:37:30;9.10;99.90
47350;DHT22;33088;51.982;5.872;2023-04-24T06:39:55;9.10;99.90
47350;DHT22;33088;51.982;5.872;2023-04-24T06:42:21;9.10;99.90
47350;DHT22;33088;51.982;5.872;2023-04-24T06:44:49;9.10;99.90
47350;DHT22;33088;51.982;5.872;2023-04-24T06:47:14;9.30;99.90
47350;DHT22;33088;51.982;5.872;2023-04-24T06:49:41;9.20;99.90
47350;DHT22;33088;51.982;5.872;2023-04-24T06:52:07;9.20;99.90
47350;DHT22;33088;51.982;5.872;2023-04-24T06:54:33;9.20;99.90
47350;DHT22;33088;51.982;5.872;2023-04-24T06:56:59;9.20;99.90
47350;DHT22;33088;51.982;5.872;2023-04-24T06:59:26;9.20;99.90
47350;DHT22;33088;51.982;5.872;2023-04-24T07:01:52;9.20;99.90
47350;DHT22;33088;51.982;5.872;2023-04-24T07:04:18;9.30;99.90
47350;DHT22;33088;51.982;5.872;2023-04-24T07:06:45;9.30;99.90
47350;DHT22;33088;51.982;5.872;2023-04-24T07:09:11;9.20;99.90
47350;DHT22;33088;51.982;5.872;2023-04-24T07:11:39;9.10;99.90
47350;DHT22;33088;51.982;5.872;2023-04-24T07:14:06;9.10;99.90
47350;DHT22;33088;51.982;5.872;2023-04-24T07:16:37;9.00;99.90
47350;DHT22;33088;51.982;5.872;2023-04-24T07:19:02;9.00;99.90
47350;DHT22;33088;51.982;5.872;2023-04-24T07:21:28;8.90;99.90
47350;DHT22;33088;51.982;5.872;2023-04-24T07:23:54;8.90;99.90
47350;DHT22;33088;51.982;5.872;2023-04-24T07:26:20;8.80;99.90
47350;DHT22;33088;51.982;5.872;2023-04-24T07:28:46;8.90;99.90
47350;DHT22;33088;51.982;5.872;2023-04-24T07:31:12;8.80;99.90
47350;DHT22;33088;51.982;5.872;2023-04-24T07:33:38;8.80;99.90
47350;DHT22;33088;51.982;5.872;2023-04-24T07:36:04;8.80;99.90
47350;DHT22;33088;51.982;5.872;2023-04-24T07:38:30;8.70;99.90
47350;DHT22;33088;51.982;5.872;2023-04-24T07:40:56;8.60;99.90
47350;DHT22;33088;51.982;5.872;2023-04-24T07:43:22;8.80;99.90
47350;DHT22;33088;51.982;5.872;2023-04-24T07:45:49;8.80;99.90
47350;DHT22;33088;51.982;5.872;2023-04-24T07:48:15;8.60;99.90
47350;DHT22;33088;51.982;5.872;2023-04-24T07:50:43;8.50;99.90
47350;DHT22;33088;51.982;5.872;2023-04-24T07:53:09;8.60;99.90
47350;DHT22;33088;51.982;5.872;2023-04-24T07:55:35;8.40;99.90
47350;DHT22;33088;51.982;5.872;2023-04-24T07:58:01;8.50;99.90
47350;DHT22;33088;51.982;5.872;2023-04-24T08:00:27;8.40;99.90
47350;DHT22;33088;51.982;5.872;2023-04-24T08:02:52;8.50;99.90
47350;DHT22;33088;51.982;5.872;2023-04-24T08:05:18;8.30;99.90
47350;DHT22;33088;51.982;5.872;2023-04-24T08:07:45;8.30;99.90
47350;DHT22;33088;51.982;5.872;2023-04-24T08:10:14;8.40;99.90
47350;DHT22;33088;51.982;5.872;2023-04-24T08:12:40;8.50;99.90
47350;DHT22;33088;51.982;5.872;2023-04-24T08:15:06;8.20;99.90
47350;DHT22;33088;51.982;5.872;2023-04-24T08:17:34;8.20;99.90
47350;DHT22;33088;51.982;5.872;2023-04-24T08:20:01;8.20;99.90
47350;DHT22;33088;51.982;5.872;2023-04-24T08:22:28;8.10;99.90
47350;DHT22;33088;51.982;5.872;2023-04-24T08:24:54;8.20;99.90
47350;DHT22;33088;51.982;5.872;2023-04-24T08:27:21;8.10;99.90
47350;DHT22;33088;51.982;5.872;2023-04-24T08:29:47;8.10;99.90
47350;DHT22;33088;51.982;5.872;2023-04-24T08:32:12;8.00;99.90
47350;DHT22;33088;51.982;5.872;2023-04-24T08:34:38;8.10;99.90
47350;DHT22;33088;51.982;5.872;2023-04-24T08:37:03;8.20;99.90
47350;DHT22;33088;51.982;5.872;2023-04-24T08:39:29;8.10;99.90
47350;DHT22;33088;51.982;5.872;2023-04-24T08:41:55;8.30;99.90
47350;DHT22;33088;51.982;5.872;2023-04-24T08:44:21;8.10;99.90
47350;DHT22;33088;51.982;5.872;2023-04-24T08:46:50;8.20;99.90
47350;DHT22;33088;51.982;5.872;2023-04-24T08:49:17;8.20;99.90
47350;DHT22;33088;51.982;5.872;2023-04-24T08:51:44;8.20;99.90
47350;DHT22;33088;51.982;5.872;2023-04-24T08:54:12;8.10;99.90
47350;DHT22;33088;51.982;5.872;2023-04-24T08:56:38;8.20;99.90
47350;DHT22;33088;51.982;5.872;2023-04-24T08:59:06;8.10;99.90
47350;DHT22;33088;51.982;5.872;2023-04-24T09:01:32;8.10;99.90
47350;DHT22;33088;51.982;5.872;2023-04-24T09:04:02;8.10;99.90
47350;DHT22;33088;51.982;5.872;2023-04-24T09:06:29;8.10;99.90
47350;DHT22;33088;51.982;5.872;2023-04-24T09:08:59;7.90;99.90
47350;DHT22;33088;51.982;5.872;2023-04-24T09:11:26;7.90;99.90
47350;DHT22;33088;51.982;5.872;2023-04-24T09:13:53;7.90;99.90
47350;DHT22;33088;51.982;5.872;2023-04-24T09:16:19;8.00;99.90
47350;DHT22;33088;51.982;5.872;2023-04-24T09:18:46;8.00;99.90
47350;DHT22;33088;51.982;5.872;2023-04-24T09:21:11;8.10;99.90
47350;DHT22;33088;51.982;5.872;2023-04-24T09:23:38;8.20;99.90
47350;DHT22;33088;51.982;5.872;2023-04-24T09:26:04;8.20;99.90
47350;DHT22;33088;51.982;5.872;2023-04-24T09:28:36;8.20;99.90
47350;DHT22;33088;51.982;5.872;2023-04-24T09:33:35;8.40;99.90
47350;DHT22;33088;51.982;5.872;2023-04-24T09:36:01;8.50;99.90
47350;DHT22;33088;51.982;5.872;2023-04-24T09:38:35;8.60;99.90
47350;DHT22;33088;51.982;5.872;2023-04-24T09:41:06;8.70;99.90
47350;DHT22;33088;51.982;5.872;2023-04-24T09:43:35;8.70;99.90
47350;DHT22;33088;51.982;5.872;2023-04-24T09:46:06;8.70;99.90
47350;DHT22;33088;51.982;5.872;2023-04-24T09:48:36;8.70;99.90
47350;DHT22;33088;51.982;5.872;2023-04-24T09:51:03;8.80;99.90
47350;DHT22;33088;51.982;5.872;2023-04-24T09:53:30;8.90;99.90
47350;DHT22;33088;51.982;5.872;2023-04-24T09:56:09;9.00;99.90
47350;DHT22;33088;51.982;5.872;2023-04-24T09:58:36;9.10;99.90
47350;DHT22;33088;51.982;5.872;2023-04-24T10:01:02;9.10;99.90
47350;DHT22;33088;51.982;5.872;2023-04-24T10:03:30;9.20;99.90
47350;DHT22;33088;51.982;5.872;2023-04-24T10:06:00;9.20;99.90
47350;DHT22;33088;51.982;5.872;2023-04-24T10:08:26;9.20;99.90
47350;DHT22;33088;51.982;5.872;2023-04-24T10:10:58;9.30;99.90
47350;DHT22;33088;51.982;5.872;2023-04-24T10:13:25;9.40;99.90
47350;DHT22;33088;51.982;5.872;2023-04-24T10:15:54;9.40;99.90
47350;DHT22;33088;51.982;5.872;2023-04-24T10:18:20;9.50;99.90
47350;DHT22;33088;51.982;5.872;2023-04-24T10:20:46;9.50;99.90
47350;DHT22;33088;51.982;5.872;2023-04-24T10:23:12;9.70;99.90
47350;DHT22;33088;51.982;5.872;2023-04-24T10:25:38;9.80;99.90
47350;DHT22;33088;51.982;5.872;2023-04-24T10:28:04;10.00;99.90
47350;DHT22;33088;51.982;5.872;2023-04-24T10:30:34;10.10;99.90
47350;DHT22;33088;51.982;5.872;2023-04-24T10:33:04;10.10;99.90
47350;DHT22;33088;51.982;5.872;2023-04-24T10:35:32;10.20;99.90
47350;DHT22;33088;51.982;5.872;2023-04-24T10:38:05;10.10;99.90
47350;DHT22;33088;51.982;5.872;2023-04-24T10:40:35;10.30;99.90
47350;DHT22;33088;51.982;5.872;2023-04-24T10:43:05;10.40;99.90
47350;DHT22;33088;51.982;5.872;2023-04-24T10:45:33;10.20;99.90
47350;DHT22;33088;51.982;5.872;2023-04-24T10:50:46;10.00;99.90
47350;DHT22;33088;51.982;5.872;2023-04-24T10:53:23;9.90;99.90
47350;DHT22;33088;51.982;5.872;2023-04-24T10:59:02;9.80;99.90
47350;DHT22;33088;51.982;5.872;2023-04-24T11:01:32;10.10;99.90
47350;DHT22;33088;51.982;5.872;2023-04-24T11:03:59;10.10;99.90
47350;DHT22;33088;51.982;5.872;2023-04-24T11:06:33;10.20;99.90
47350;DHT22;33088;51.982;5.872;2023-04-24T11:09:10;10.00;99.90
47350;DHT22;33088;51.982;5.872;2023-04-24T11:11:44;9.80;99.90
47350;DHT22;33088;51.982;5.872;2023-04-24T11:14:10;9.50;99.90
47350;DHT22;33088;51.982;5.872;2023-04-24T11:16:52;9.30;99.90
47350;DHT22;33088;51.982;5.872;2023-04-24T11:19:21;9.40;99.90
47350;DHT22;33088;51.982;5.872;2023-04-24T11:21:54;9.60;99.90
47350;DHT22;33088;51.982;5.872;2023-04-24T11:32:40;10.20;99.90
47350;DHT22;33088;51.982;5.872;2023-04-24T11:35:20;10.10;99.90
47350;DHT22;33088;51.982;5.872;2023-04-24T11:37:51;10.10;99.90
47350;DHT22;33088;51.982;5.872;2023-04-24T11:40:19;10.10;99.90
47350;DHT22;33088;51.982;5.872;2023-04-24T11:42:50;10.20;99.90
47350;DHT22;33088;51.982;5.872;2023-04-24T11:45:24;10.30;99.90
47350;DHT22;33088;51.982;5.872;2023-04-24T11:47:50;10.30;99.90
47350;DHT22;33088;51.982;5.872;2023-04-24T11:50:22;10.40;99.90
47350;DHT22;33088;51.982;5.872;2023-04-24T11:52:49;10.50;99.90
47350;DHT22;33088;51.982;5.872;2023-04-24T11:57:49;10.20;99.90
47350;DHT22;33088;51.982;5.872;2023-04-24T12:02:41;9.90;99.90
47350;DHT22;33088;51.982;5.872;2023-04-24T12:05:07;10.10;99.90
47350;DHT22;33088;51.982;5.872;2023-04-24T12:07:42;9.70;99.90
47350;DHT22;33088;51.982;5.872;2023-04-24T12:10:08;9.40;99.90
47350;DHT22;33088;51.982;5.872;2023-04-24T12:12:34;9.30;99.90
47350;DHT22;33088;51.982;5.872;2023-04-24T12:15:01;9.10;99.90
47350;DHT22;33088;51.982;5.872;2023-04-24T12:17:29;9.10;99.90
47350;DHT22;33088;51.982;5.872;2023-04-24T12:20:00;9.20;99.90
47350;DHT22;33088;51.982;5.872;2023-04-24T12:22:28;9.40;99.90
47350;DHT22;33088;51.982;5.872;2023-04-24T12:24:59;9.60;99.90
47350;DHT22;33088;51.982;5.872;2023-04-24T12:27:26;9.70;99.90
47350;DHT22;33088;51.982;5.872;2023-04-24T12:29:55;9.90;99.90
47350;DHT22;33088;51.982;5.872;2023-04-24T12:32:21;10.00;99.90
47350;DHT22;33088;51.982;5.872;2023-04-24T12:34:47;10.40;99.90
47350;DHT22;33088;51.982;5.872;2023-04-24T12:37:12;10.30;99.90
47350;DHT22;33088;51.982;5.872;2023-04-24T12:39:38;10.30;99.90
47350;DHT22;33088;51.982;5.872;2023-04-24T12:42:04;10.30;99.90
47350;DHT22;33088;51.982;5.872;2023-04-24T12:44:31;10.50;99.90
47350;DHT22;33088;51.982;5.872;2023-04-24T12:46:57;10.60;99.90
47350;DHT22;33088;51.982;5.872;2023-04-24T12:49:23;10.60;99.90
47350;DHT22;33088;51.982;5.872;2023-04-24T12:51:49;10.60;99.90
47350;DHT22;33088;51.982;5.872;2023-04-24T12:54:14;10.40;99.90
47350;DHT22;33088;51.982;5.872;2023-04-24T12:56:40;10.40;99.90
47350;DHT22;33088;51.982;5.872;2023-04-24T12:59:06;10.60;99.90
47350;DHT22;33088;51.982;5.872;2023-04-24T13:01:32;10.60;99.90
47350;DHT22;33088;51.982;5.872;2023-04-24T13:03:57;10.60;99.90
47350;DHT22;33088;51.982;5.872;2023-04-24T13:06:23;10.80;99.90
47350;DHT22;33088;51.982;5.872;2023-04-24T13:08:49;10.90;99.90
47350;DHT22;33088;51.982;5.872;2023-04-24T13:11:14;10.90;99.90
47350;DHT22;33088;51.982;5.872;2023-04-24T13:13:40;10.90;99.90
47350;DHT22;33088;51.982;5.872;2023-04-24T13:16:06;10.80;99.90
47350;DHT22;33088;51.982;5.872;2023-04-24T13:18:31;10.80;99.90
47350;DHT22;33088;51.982;5.872;2023-04-24T13:20:57;11.00;99.90
47350;DHT22;33088;51.982;5.872;2023-04-24T13:23:23;10.90;99.90
47350;DHT22;33088;51.982;5.872;2023-04-24T13:25:48;11.00;99.90
47350;DHT22;33088;51.982;5.872;2023-04-24T13:28:14;10.50;99.90
47350;DHT22;33088;51.982;5.872;2023-04-24T13:30:40;10.60;99.90
47350;DHT22;33088;51.982;5.872;2023-04-24T13:33:06;10.30;99.90
47350;DHT22;33088;51.982;5.872;2023-04-24T13:35:34;10.10;99.90
47350;DHT22;33088;51.982;5.872;2023-04-24T13:38:02;10.10;99.90
47350;DHT22;33088;51.982;5.872;2023-04-24T13:40:41;10.20;99.90
47350;DHT22;33088;51.982;5.872;2023-04-24T13:43:07;10.20;99.90
47350;DHT22;33088;51.982;5.872;2023-04-24T13:45:48;10.10;99.90
47350;DHT22;33088;51.982;5.872;2023-04-24T13:48:16;10.20;99.90
47350;DHT22;33088;51.982;5.872;2023-04-24T13:51:03;10.30;99.90
47350;DHT22;33088;51.982;5.872;2023-04-24T13:53:29;10.40;99.90
47350;DHT22;33088;51.982;5.872;2023-04-24T13:55:57;10.30;99.90
47350;DHT22;33088;51.982;5.872;2023-04-24T13:58:23;10.30;99.90
47350;DHT22;33088;51.982;5.872;2023-04-24T14:00:52;10.40;99.90
47350;DHT22;33088;51.982;5.872;2023-04-24T14:03:18;10.50;99.90
47350;DHT22;33088;51.982;5.872;2023-04-24T14:05:58;10.80;99.90
47350;DHT22;33088;51.982;5.872;2023-04-24T14:08:33;11.00;99.90
47350;DHT22;33088;51.982;5.872;2023-04-24T14:10:59;11.00;99.90
47350;DHT22;33088;51.982;5.872;2023-04-24T14:13:31;10.90;99.90
47350;DHT22;33088;51.982;5.872;2023-04-24T14:15:59;10.90;99.90
47350;DHT22;33088;51.982;5.872;2023-04-24T14:18:28;11.10;99.90
47350;DHT22;33088;51.982;5.872;2023-04-24T14:20:56;10.90;99.90
47350;DHT22;33088;51.982;5.872;2023-04-24T14:23:39;11.00;99.90
47350;DHT22;33088;51.982;5.872;2023-04-24T14:26:05;10.90;99.90
47350;DHT22;33088;51.982;5.872;2023-04-24T14:28:41;11.20;99.90
47350;DHT22;33088;51.982;5.872;2023-04-24T14:31:10;11.30;99.90
47350;DHT22;33088;51.982;5.872;2023-04-24T14:33:39;11.60;99.90
47350;DHT22;33088;51.982;5.872;2023-04-24T14:36:08;11.80;99.90
47350;DHT22;33088;51.982;5.872;2023-04-24T14:38:36;11.60;99.90
47350;DHT22;33088;51.982;5.872;2023-04-24T14:41:07;11.50;99.90
47350;DHT22;33088;51.982;5.872;2023-04-24T14:43:36;11.10;99.90
47350;DHT22;33088;51.982;5.872;2023-04-24T14:46:02;11.10;99.90
47350;DHT22;33088;51.982;5.872;2023-04-24T14:48:28;11.00;99.90
47350;DHT22;33088;51.982;5.872;2023-04-24T14:50:56;10.90;99.90
47350;DHT22;33088;51.982;5.872;2023-04-24T14:53:22;10.80;99.90
47350;DHT22;33088;51.982;5.872;2023-04-24T14:55:53;11.00;99.90
47350;DHT22;33088;51.982;5.872;2023-04-24T14:58:19;11.10;99.90
47350;DHT22;33088;51.982;5.872;2023-04-24T15:00:47;11.10;99.90
47350;DHT22;33088;51.982;5.872;2023-04-24T15:03:23;11.20;99.90
47350;DHT22;33088;51.982;5.872;2023-04-24T15:05:49;11.30;99.90
47350;DHT22;33088;51.982;5.872;2023-04-24T15:08:15;11.30;99.90
47350;DHT22;33088;51.982;5.872;2023-04-24T15:10:40;11.60;99.90
47350;DHT22;33088;51.982;5.872;2023-04-24T15:13:06;11.30;99.90
47350;DHT22;33088;51.982;5.872;2023-04-24T15:15:32;11.20;99.90
47350;DHT22;33088;51.982;5.872;2023-04-24T15:17:57;11.10;99.90
47350;DHT22;33088;51.982;5.872;2023-04-24T15:20:23;11.30;99.90
47350;DHT22;33088;51.982;5.872;2023-04-24T15:22:48;11.00;99.90
47350;DHT22;33088;51.982;5.872;2023-04-24T15:25:14;10.80;99.90
47350;DHT22;33088;51.982;5.872;2023-04-24T15:27:44;10.70;99.90
47350;DHT22;33088;51.982;5.872;2023-04-24T15:30:13;10.60;99.90
47350;DHT22;33088;51.982;5.872;2023-04-24T15:32:39;10.50;99.90
47350;DHT22;33088;51.982;5.872;2023-04-24T15:35:06;10.70;99.90
47350;DHT22;33088;51.982;5.872;2023-04-24T15:37:31;10.70;99.90
47350;DHT22;33088;51.982;5.872;2023-04-24T15:39:57;10.80;99.90
47350;DHT22;33088;51.982;5.872;2023-04-24T15:42:25;10.90;99.90
47350;DHT22;33088;51.982;5.872;2023-04-24T15:44:51;10.70;99.90
47350;DHT22;33088;51.982;5.872;2023-04-24T15:47:16;10.80;99.90
47350;DHT22;33088;51.982;5.872;2023-04-24T15:49:42;10.80;99.90
47350;DHT22;33088;51.982;5.872;2023-04-24T15:52:08;10.80;99.90
47350;DHT22;33088;51.982;5.872;2023-04-24T15:54:35;10.80;99.90
47350;DHT22;33088;51.982;5.872;2023-04-24T15:57:00;10.70;99.90
47350;DHT22;33088;51.982;5.872;2023-04-24T15:59:27;10.60;99.90
47350;DHT22;33088;51.982;5.872;2023-04-24T16:01:54;10.60;99.90
47350;DHT22;33088;51.982;5.872;2023-04-24T16:04:20;10.60;99.90
47350;DHT22;33088;51.982;5.872;2023-04-24T16:06:46;10.80;99.90